Time;durP1;ratioP1;P1;durP2;ratioP2;P2;SDS_P1;SDS_P2;PMS_P1;PMS_P2;Temp;Humidity;BMP_temperature;BMP_pressure;BME280_temperature;BME280_humidity;BME280_pressure;Samples;Min_cycle;Max_cycle;Signal;HPM_P1;HPM_P2
2021/07/02 00:00:10;;;;;;;37.75;21.92;;;;;;;;;;5026421;28;20271;-56
2021/07/02 00:02:35;;;;;;;35.13;21.17;;;;;;;;;;5036945;28;20655;-55
2021/07/02 00:05:02;;;;;;;33.70;21.40;;;;;;;;;;5039884;28;20237;-56
2021/07/02 00:07:27;;;;;;;36.85;22.75;;;;;;;;;;5025267;28;20199;-55
2021/07/02 00:09:52;;;;;;;34.37;21.83;;;;;;;;;;5043680;28;20196;-55
2021/07/02 00:12:17;;;;;;;36.07;21.77;;;;;;;;;;5044541;28;20194;-55
2021/07/02 00:14:43;;;;;;;34.57;21.93;;;;;;;;;;5026115;28;20213;-56
2021/07/02 00:17:08;;;;;;;33.47;22.30;;;;;;;;;;5027749;28;20564;-56
2021/07/02 00:19:33;;;;;;;36.80;20.77;;;;;;;;;;5042034;28;20182;-56
2021/07/02 00:21:59;;;;;;;34.97;22.77;;;;;;;;;;5040932;28;20251;-55
2021/07/02 00:24:24;;;;;;;38.77;22.20;;;;;;;;;;5038420;28;20206;-56
2021/07/02 00:26:49;;;;;;;36.03;22.77;;;;;;;;;;5041302;28;20705;-56
2021/07/02 00:29:14;;;;;;;33.33;21.13;;;;;;;;;;5037346;28;20194;-55
2021/07/02 00:31:40;;;;;;;35.43;21.37;;;;;;;;;;5028107;28;20208;-55
2021/07/02 00:34:05;;;;;;;34.70;20.83;;;;;;;;;;5044987;28;20212;-56
2021/07/02 00:36:30;;;;;;;32.90;19.90;;;;;;;;;;5036902;28;20721;-55
2021/07/02 00:38:55;;;;;;;34.20;21.00;;;;;;;;;;5033530;28;20244;-56
2021/07/02 00:41:21;;;;;;;33.17;20.20;;;;;;;;;;5043108;28;20571;-55
2021/07/02 00:43:55;;;;;;;32.43;19.90;;;;;;;;;;5043824;28;20205;-56
2021/07/02 00:46:21;;;;;;;33.67;20.00;;;;;;;;;;5039644;28;20682;-56
2021/07/02 00:48:47;;;;;;;34.00;20.50;;;;;;;;;;5042238;28;20190;-56
2021/07/02 00:51:13;;;;;;;31.30;20.37;;;;;;;;;;5042270;28;20195;-58
2021/07/02 00:53:41;;;;;;;30.53;19.20;;;;;;;;;;5042263;28;20289;-56
2021/07/02 00:56:06;;;;;;;32.70;20.63;;;;;;;;;;5028356;28;20273;-56
2021/07/02 00:58:33;;;;;;;29.60;19.95;;;;;;;;;;5040111;28;20301;-57
2021/07/02 01:00:59;;;;;;;31.37;19.27;;;;;;;;;;5046418;28;20194;-57
2021/07/02 01:03:24;;;;;;;31.33;20.85;;;;;;;;;;5046367;28;20220;-56
2021/07/02 01:05:49;;;;;;;34.80;20.43;;;;;;;;;;5047964;28;20650;-56
2021/07/02 01:08:15;;;;;;;31.47;19.97;;;;;;;;;;5045026;28;20217;-55
2021/07/02 01:10:42;;;;;;;33.33;20.37;;;;;;;;;;5045621;28;20209;-56
2021/07/02 01:13:08;;;;;;;33.22;20.35;;;;;;;;;;5047297;28;20206;-55
2021/07/02 01:15:33;;;;;;;33.33;20.23;;;;;;;;;;5047158;28;20703;-55
2021/07/02 01:17:58;;;;;;;35.03;20.90;;;;;;;;;;5048976;28;20217;-56
2021/07/02 01:20:24;;;;;;;37.77;21.43;;;;;;;;;;5031582;28;20225;-56
2021/07/02 01:22:49;;;;;;;31.77;20.90;;;;;;;;;;5035295;28;20599;-56
2021/07/02 01:25:14;;;;;;;38.70;21.13;;;;;;;;;;5036551;28;20229;-55
2021/07/02 01:27:40;;;;;;;35.80;20.63;;;;;;;;;;5048393;28;20286;-55
2021/07/02 01:30:07;;;;;;;33.78;20.55;;;;;;;;;;5043388;28;20222;-55
2021/07/02 01:32:32;;;;;;;30.93;19.87;;;;;;;;;;5025553;28;20222;-55
2021/07/02 01:34:58;;;;;;;32.17;21.57;;;;;;;;;;5048395;28;20224;-55
2021/07/02 01:37:23;;;;;;;34.80;20.73;;;;;;;;;;5029914;28;20285;-56
2021/07/02 01:39:49;;;;;;;31.93;19.67;;;;;;;;;;5043821;28;20204;-55
2021/07/02 01:42:14;;;;;;;33.17;19.77;;;;;;;;;;5047451;28;20194;-56
2021/07/02 01:44:39;;;;;;;32.30;19.17;;;;;;;;;;5044209;28;20364;-55
2021/07/02 01:47:05;;;;;;;30.73;19.77;;;;;;;;;;5046952;28;20190;-56
2021/07/02 01:49:31;;;;;;;36.20;18.90;;;;;;;;;;5045287;28;20269;-54
2021/07/02 01:51:56;;;;;;;35.47;18.30;;;;;;;;;;5045517;28;20638;-56
2021/07/02 01:54:22;;;;;;;35.25;18.58;;;;;;;;;;5040981;28;20622;-55
2021/07/02 01:56:48;;;;;;;32.40;19.13;;;;;;;;;;5041734;28;20218;-55
2021/07/02 01:59:15;;;;;;;32.37;18.60;;;;;;;;;;5043352;28;20573;-55
2021/07/02 02:01:41;;;;;;;32.43;19.70;;;;;;;;;;5039406;28;20536;-55
2021/07/02 02:04:07;;;;;;;32.43;18.17;;;;;;;;;;5023881;28;20271;-55
2021/07/02 02:06:32;;;;;;;34.27;19.47;;;;;;;;;;5039183;28;20511;-55
2021/07/02 02:08:57;;;;;;;28.97;17.67;;;;;;;;;;5040814;28;20681;-56
2021/07/02 02:11:23;;;;;;;28.30;18.30;;;;;;;;;;5029284;28;20194;-55
2021/07/02 02:13:48;;;;;;;26.93;18.07;;;;;;;;;;5046292;28;20206;-56
2021/07/02 02:16:13;;;;;;;28.60;17.90;;;;;;;;;;5038966;28;20300;-55
2021/07/02 02:18:38;;;;;;;34.40;17.88;;;;;;;;;;5040345;28;20268;-56
2021/07/02 02:21:04;;;;;;;29.08;16.92;;;;;;;;;;5046231;28;20557;-56
2021/07/02 02:23:29;;;;;;;37.83;18.03;;;;;;;;;;5043601;28;20218;-55
2021/07/02 02:25:54;;;;;;;28.40;16.80;;;;;;;;;;5039773;28;20228;-56
2021/07/02 02:28:20;;;;;;;29.60;16.65;;;;;;;;;;5043083;28;20195;-56
2021/07/02 02:30:45;;;;;;;31.23;18.40;;;;;;;;;;5024760;28;20178;-55
2021/07/02 02:33:11;;;;;;;31.00;18.80;;;;;;;;;;5037741;28;20285;-56
2021/07/02 02:35:37;;;;;;;30.63;20.50;;;;;;;;;;5044642;28;20612;-55
2021/07/02 02:38:02;;;;;;;35.00;21.27;;;;;;;;;;5040231;28;20197;-55
2021/07/02 02:40:28;;;;;;;30.33;19.37;;;;;;;;;;5024016;28;20189;-55
2021/07/02 02:42:53;;;;;;;37.10;19.60;;;;;;;;;;5040029;28;20206;-54
2021/07/02 02:45:19;;;;;;;36.22;19.67;;;;;;;;;;5020277;28;20664;-56
2021/07/02 02:47:44;;;;;;;39.20;19.73;;;;;;;;;;5041319;28;20193;-55
2021/07/02 02:50:09;;;;;;;36.60;19.60;;;;;;;;;;5049884;28;20283;-57
2021/07/02 02:52:35;;;;;;;33.47;18.97;;;;;;;;;;5048746;28;20178;-56
2021/07/02 02:55:00;;;;;;;37.40;20.63;;;;;;;;;;5038366;28;20218;-55
2021/07/02 02:57:25;;;;;;;37.73;21.00;;;;;;;;;;5040724;28;20650;-55
2021/07/02 02:59:51;;;;;;;36.97;20.90;;;;;;;;;;5041013;28;20236;-58
2021/07/02 03:02:16;;;;;;;33.40;20.37;;;;;;;;;;5045011;28;20182;-56
2021/07/02 03:04:41;;;;;;;36.97;20.10;;;;;;;;;;5056596;23;20220;-75
2021/07/02 03:07:07;;;;;;;37.97;20.70;;;;;;;;;;5032160;28;20803;-74
2021/07/02 03:09:33;;;;;;;35.43;21.07;;;;;;;;;;5061030;28;20579;-77
2021/07/02 03:11:59;;;;;;;44.43;20.50;;;;;;;;;;5068621;28;20209;-76
2021/07/02 03:14:24;;;;;;;37.57;20.97;;;;;;;;;;5057639;28;20178;-75
2021/07/02 03:16:50;;;;;;;43.20;21.93;;;;;;;;;;5062218;28;20209;-76
2021/07/02 03:19:15;;;;;;;39.20;22.40;;;;;;;;;;5062563;28;20227;-76
2021/07/02 03:21:41;;;;;;;33.53;20.67;;;;;;;;;;5057782;28;20198;-76
2021/07/02 03:24:07;;;;;;;41.60;21.23;;;;;;;;;;5050303;28;20217;-75
2021/07/02 03:26:32;;;;;;;39.90;20.40;;;;;;;;;;5059850;28;20208;-76
2021/07/02 03:28:58;;;;;;;40.93;20.87;;;;;;;;;;5062111;28;20213;-76
2021/07/02 03:31:23;;;;;;;40.43;20.70;;;;;;;;;;5058646;28;20699;-74
2021/07/02 03:33:49;;;;;;;39.73;21.27;;;;;;;;;;5065619;28;20211;-75
2021/07/02 03:36:14;;;;;;;40.47;20.20;;;;;;;;;;5056900;28;20181;-75
2021/07/02 03:38:39;;;;;;;45.33;21.90;;;;;;;;;;5060341;28;20661;-76
2021/07/02 03:41:05;;;;;;;37.53;21.90;;;;;;;;;;5039774;28;20197;-76
2021/07/02 03:43:30;;;;;;;43.70;21.37;;;;;;;;;;5059541;28;20216;-76
2021/07/02 03:45:56;;;;;;;36.83;21.13;;;;;;;;;;5063988;28;20193;-74
2021/07/02 03:48:21;;;;;;;44.93;21.40;;;;;;;;;;5061088;28;20212;-75
2021/07/02 03:50:46;;;;;;;45.57;21.77;;;;;;;;;;5046844;28;20212;-75
2021/07/02 03:53:11;;;;;;;50.67;22.50;;;;;;;;;;5056984;28;20193;-75
2021/07/02 03:55:37;;;;;;;42.27;21.57;;;;;;;;;;5062696;28;20192;-75
2021/07/02 03:58:03;;;;;;;43.50;22.07;;;;;;;;;;5062447;28;20197;-76
2021/07/02 04:00:29;;;;;;;39.40;21.17;;;;;;;;;;5062981;28;20636;-76
2021/07/02 04:02:54;;;;;;;46.13;20.90;;;;;;;;;;5048808;28;20255;-74
2021/07/02 04:05:20;;;;;;;43.73;21.67;;;;;;;;;;5062626;28;20189;-75
2021/07/02 04:07:45;;;;;;;42.97;20.90;;;;;;;;;;5066983;28;20217;-74
2021/07/02 04:10:11;;;;;;;43.67;21.67;;;;;;;;;;5066471;28;20770;-76
2021/07/02 04:12:36;;;;;;;39.37;21.07;;;;;;;;;;5059385;28;20178;-76
2021/07/02 04:15:03;;;;;;;36.80;20.33;;;;;;;;;;5067252;28;20267;-75
2021/07/02 04:17:29;;;;;;;42.78;21.33;;;;;;;;;;5062797;28;20182;-75
2021/07/02 04:19:54;;;;;;;49.50;23.50;;;;;;;;;;5068912;28;20209;-75
2021/07/02 04:22:19;;;;;;;39.10;21.50;;;;;;;;;;5070609;28;20756;-75
2021/07/02 04:24:44;;;;;;;39.40;22.67;;;;;;;;;;5071729;28;20226;-75
2021/07/02 04:27:12;;;;;;;45.20;22.87;;;;;;;;;;5062224;28;20694;-76
2021/07/02 04:29:38;;;;;;;53.50;25.10;;;;;;;;;;5069424;28;20755;-75
2021/07/02 04:32:03;;;;;;;49.07;24.87;;;;;;;;;;5062454;28;20190;-76
2021/07/02 04:34:29;;;;;;;48.60;24.17;;;;;;;;;;5068696;28;20181;-75
2021/07/02 04:36:54;;;;;;;56.77;25.10;;;;;;;;;;5062680;28;20641;-74
2021/07/02 04:39:21;;;;;;;53.63;25.73;;;;;;;;;;5060732;28;20210;-75
2021/07/02 04:41:46;;;;;;;47.00;25.27;;;;;;;;;;5061314;28;20185;-76
2021/07/02 04:44:12;;;;;;;49.13;25.33;;;;;;;;;;5057433;28;20205;-75
2021/07/02 04:46:37;;;;;;;46.10;25.10;;;;;;;;;;5058697;28;20641;-75
2021/07/02 04:49:02;;;;;;;62.73;27.67;;;;;;;;;;5063315;28;20227;-75
2021/07/02 04:51:28;;;;;;;56.17;26.20;;;;;;;;;;5060950;28;20182;-76
2021/07/02 04:53:53;;;;;;;60.67;25.50;;;;;;;;;;5050804;28;20185;-76
2021/07/02 04:56:18;;;;;;;64.63;27.25;;;;;;;;;;5059825;28;20404;-75
2021/07/02 04:58:44;;;;;;;56.13;25.80;;;;;;;;;;5061883;28;20217;-75
2021/07/02 05:01:12;;;;;;;54.92;26.38;;;;;;;;;;5066261;28;20189;-75
2021/07/02 05:03:38;;;;;;;50.13;25.23;;;;;;;;;;5051163;28;20197;-75
2021/07/02 05:08:48;;;;;;;44.30;25.60;;;;;;;;;;1488692;26;20600;-57
2021/07/02 05:11:13;;;;;;;52.80;26.10;;;;;;;;;;5034080;28;20186;-57
2021/07/02 05:13:40;;;;;;;48.15;24.58;;;;;;;;;;5033230;28;20658;-56
2021/07/02 05:16:06;;;;;;;47.13;25.90;;;;;;;;;;5039256;28;20194;-56
2021/07/02 05:18:32;;;;;;;49.47;25.60;;;;;;;;;;5048640;28;20258;-56
2021/07/02 05:20:57;;;;;;;48.23;24.20;;;;;;;;;;5056598;28;20378;-56
2021/07/02 05:23:22;;;;;;;45.10;23.57;;;;;;;;;;5042231;28;20190;-56
2021/07/02 05:25:48;;;;;;;47.60;24.50;;;;;;;;;;5036636;28;20819;-54
2021/07/02 05:28:13;;;;;;;44.07;24.13;;;;;;;;;;5042804;28;20183;-56
2021/07/02 05:30:38;;;;;;;50.90;24.50;;;;;;;;;;5044558;28;20197;-55
2021/07/02 05:33:04;;;;;;;49.03;24.90;;;;;;;;;;5044510;28;20208;-55
2021/07/02 05:35:29;;;;;;;41.97;23.97;;;;;;;;;;5048267;28;20202;-57
2021/07/02 05:37:54;;;;;;;35.90;22.13;;;;;;;;;;5036320;28;20198;-55
2021/07/02 05:40:20;;;;;;;38.73;21.97;;;;;;;;;;5047770;28;20221;-55
2021/07/02 05:42:46;;;;;;;35.90;23.02;;;;;;;;;;5044071;28;20431;-54
2021/07/02 05:45:12;;;;;;;40.70;21.92;;;;;;;;;;5048052;28;20211;-56
2021/07/02 05:47:52;;;;;;;36.15;20.67;;;;;;;;;;5049374;28;20255;-56
2021/07/02 05:50:19;;;;;;;36.60;21.23;;;;;;;;;;5040400;28;20197;-56
2021/07/02 05:52:45;;;;;;;30.02;20.08;;;;;;;;;;5035925;28;20183;-55
2021/07/02 05:55:12;;;;;;;36.10;22.55;;;;;;;;;;5032469;28;20749;-54
2021/07/02 05:57:41;;;;;;;41.07;21.97;;;;;;;;;;5041409;28;20179;-54
2021/07/02 06:00:07;;;;;;;36.93;19.37;;;;;;;;;;5039572;28;20218;-54
2021/07/02 06:02:33;;;;;;;29.05;18.58;;;;;;;;;;5037810;28;20287;-53
2021/07/02 06:04:58;;;;;;;35.08;19.52;;;;;;;;;;5020764;28;20214;-54
2021/07/02 06:07:23;;;;;;;32.50;19.83;;;;;;;;;;5009156;28;21074;-55
2021/07/02 06:09:48;;;;;;;32.28;19.38;;;;;;;;;;5027356;28;20189;-55
2021/07/02 06:12:14;;;;;;;38.45;21.65;;;;;;;;;;5022837;28;20199;-55
2021/07/02 06:14:39;;;;;;;31.40;20.73;;;;;;;;;;5026990;28;20195;-57
2021/07/02 06:17:04;;;;;;;38.28;21.02;;;;;;;;;;5030394;28;20717;-56
2021/07/02 06:19:30;;;;;;;33.33;20.23;;;;;;;;;;5034229;28;20266;-55
2021/07/02 06:21:55;;;;;;;34.20;20.52;;;;;;;;;;5027511;28;20194;-56
2021/07/02 06:24:20;;;;;;;37.85;20.08;;;;;;;;;;5023004;28;20226;-56
2021/07/02 06:26:45;;;;;;;36.75;21.52;;;;;;;;;;5005973;28;20198;-55
2021/07/02 06:29:11;;;;;;;36.03;21.58;;;;;;;;;;5021279;28;20193;-56
2021/07/02 06:31:36;;;;;;;41.15;21.73;;;;;;;;;;5030390;28;20198;-56
2021/07/02 06:34:01;;;;;;;39.95;21.70;;;;;;;;;;5020838;28;20232;-57
2021/07/02 06:36:26;;;;;;;45.28;22.42;;;;;;;;;;5026191;28;20239;-58
2021/07/02 06:38:52;;;;;;;41.80;23.03;;;;;;;;;;5023282;28;20631;-56
2021/07/02 06:41:17;;;;;;;40.58;22.63;;;;;;;;;;5026435;28;20191;-60
2021/07/02 06:43:42;;;;;;;48.15;23.27;;;;;;;;;;5022591;28;20208;-58
2021/07/02 06:46:08;;;;;;;37.63;23.13;;;;;;;;;;5024579;28;20205;-58
2021/07/02 06:48:33;;;;;;;43.65;23.52;;;;;;;;;;5024459;28;20619;-59
2021/07/02 06:50:58;;;;;;;44.05;23.42;;;;;;;;;;5022410;28;20270;-58
2021/07/02 06:53:24;;;;;;;37.78;22.20;;;;;;;;;;5022550;28;20282;-59
2021/07/02 06:55:51;;;;;;;42.22;22.42;;;;;;;;;;5023855;28;20700;-57
2021/07/02 06:58:17;;;;;;;40.78;21.88;;;;;;;;;;5026176;28;20193;-58
2021/07/02 07:00:43;;;;;;;45.45;22.48;;;;;;;;;;5023810;28;20262;-58
2021/07/02 07:03:09;;;;;;;40.63;22.17;;;;;;;;;;5007019;28;20253;-58
2021/07/02 07:05:35;;;;;;;38.03;22.80;;;;;;;;;;5020290;28;20202;-56
2021/07/02 07:08:02;;;;;;;45.72;22.88;;;;;;;;;;5023777;28;20186;-59
2021/07/02 07:10:30;;;;;;;48.03;23.30;;;;;;;;;;5009223;28;20222;-57
2021/07/02 07:12:55;;;;;;;42.08;22.77;;;;;;;;;;5023522;28;20218;-58
2021/07/02 07:15:20;;;;;;;35.85;22.02;;;;;;;;;;5015697;28;20245;-58
2021/07/02 07:17:46;;;;;;;40.80;22.20;;;;;;;;;;5022312;28;20708;-58
2021/07/02 07:20:11;;;;;;;38.40;20.73;;;;;;;;;;5024777;28;20252;-57
2021/07/02 07:22:37;;;;;;;38.17;21.55;;;;;;;;;;5022892;28;20179;-57
2021/07/02 07:25:02;;;;;;;38.35;20.30;;;;;;;;;;5018781;28;20241;-56
2021/07/02 07:27:28;;;;;;;33.30;19.58;;;;;;;;;;5026200;28;20290;-58
2021/07/02 07:29:53;;;;;;;30.95;18.42;;;;;;;;;;5021086;28;20194;-58
2021/07/02 07:32:19;;;;;;;32.45;18.63;;;;;;;;;;5021348;28;20670;-58
2021/07/02 07:34:47;;;;;;;31.65;18.27;;;;;;;;;;5021580;28;20859;-57
2021/07/02 07:37:19;;;;;;;27.77;17.20;;;;;;;;;;5022168;28;20245;-56
2021/07/02 07:39:45;;;;;;;31.17;17.08;;;;;;;;;;5022871;28;20325;-57
2021/07/02 07:42:10;;;;;;;29.65;18.63;;;;;;;;;;5015214;28;20194;-57
2021/07/02 07:44:36;;;;;;;36.20;21.17;;;;;;;;;;5025730;28;20202;-57
2021/07/02 07:47:01;;;;;;;34.17;20.23;;;;;;;;;;5017526;28;20190;-56
2021/07/02 07:49:26;;;;;;;35.63;22.30;;;;;;;;;;5021511;28;20247;-57
2021/07/02 07:54:20;;;;;;;39.28;23.27;;;;;;;;;;5034191;28;20296;-57
2021/07/02 07:56:52;;;;;;;37.33;23.52;;;;;;;;;;5019202;28;20294;-57
2021/07/02 07:59:19;;;;;;;40.33;23.10;;;;;;;;;;5020085;28;20244;-58
2021/07/02 08:01:44;;;;;;;43.05;24.20;;;;;;;;;;5046931;28;20184;-58
2021/07/02 08:04:13;;;;;;;39.95;21.55;;;;;;;;;;5031571;28;20228;-58
2021/07/02 08:06:38;;;;;;;33.67;21.05;;;;;;;;;;5032204;28;20198;-58
2021/07/02 08:09:03;;;;;;;36.65;21.05;;;;;;;;;;5029607;28;20217;-58
2021/07/02 08:11:29;;;;;;;35.80;23.30;;;;;;;;;;5027732;28;20201;-58
2021/07/02 08:13:54;;;;;;;39.20;24.70;;;;;;;;;;5027894;28;20602;-56
2021/07/02 08:16:19;;;;;;;34.38;21.85;;;;;;;;;;5029814;28;20198;-57
2021/07/02 08:18:44;;;;;;;36.00;21.08;;;;;;;;;;5026177;28;20198;-57
2021/07/02 08:21:10;;;;;;;31.58;18.05;;;;;;;;;;5024387;28;20194;-56
2021/07/02 08:23:35;;;;;;;30.15;17.48;;;;;;;;;;5028158;28;21018;-58
2021/07/02 08:26:00;;;;;;;26.83;17.10;;;;;;;;;;5031993;28;20194;-58
2021/07/02 08:31:10;;;;;;;27.75;17.83;;;;;;;;;;5033085;28;20281;-58
2021/07/02 08:33:35;;;;;;;27.83;17.00;;;;;;;;;;5022653;28;20301;-59
2021/07/02 08:36:00;;;;;;;27.05;17.02;;;;;;;;;;5025333;28;20195;-56
2021/07/02 08:38:26;;;;;;;26.45;16.42;;;;;;;;;;5023054;28;20230;-56
2021/07/02 08:40:53;;;;;;;25.20;15.93;;;;;;;;;;5021842;28;20259;-57
2021/07/02 08:43:18;;;;;;;28.38;16.35;;;;;;;;;;5008495;28;20198;-56
2021/07/02 08:45:44;;;;;;;22.85;15.68;;;;;;;;;;5022167;28;20693;-58
2021/07/02 08:48:10;;;;;;;24.67;15.35;;;;;;;;;;5021693;28;20178;-56
2021/07/02 08:50:37;;;;;;;25.45;15.38;;;;;;;;;;5029481;28;20191;-58
2021/07/02 08:53:08;;;;;;;23.20;15.80;;;;;;;;;;5030156;28;20190;-58
2021/07/02 08:55:33;;;;;;;22.33;15.95;;;;;;;;;;5014657;28;20297;-57
2021/07/02 08:57:59;;;;;;;24.08;16.55;;;;;;;;;;5032067;28;20741;-56
2021/07/02 09:00:26;;;;;;;25.45;16.20;;;;;;;;;;5031504;28;20579;-59
2021/07/02 09:02:51;;;;;;;27.73;15.68;;;;;;;;;;5026167;28;20195;-58
2021/07/02 09:05:32;;;;;;;25.02;16.02;;;;;;;;;;5029219;28;20265;-58
2021/07/02 09:07:57;;;;;;;24.55;15.38;;;;;;;;;;5027801;28;20194;-59
2021/07/02 09:10:34;;;;;;;24.27;16.33;;;;;;;;;;5025800;28;20289;-59
2021/07/02 09:12:59;;;;;;;24.05;16.58;;;;;;;;;;5027552;28;20610;-57
2021/07/02 09:15:25;;;;;;;24.25;16.17;;;;;;;;;;5023404;28;20230;-58
2021/07/02 09:17:50;;;;;;;25.85;16.58;;;;;;;;;;5015627;28;20218;-60
2021/07/02 09:20:19;;;;;;;20.60;16.00;;;;;;;;;;5023288;28;20194;-59
2021/07/02 09:23:10;;;;;;;23.63;15.70;;;;;;;;;;5023917;28;20190;-56
2021/07/02 09:25:39;;;;;;;25.67;16.83;;;;;;;;;;5012344;28;20278;-58
2021/07/02 09:28:12;;;;;;;28.05;16.90;;;;;;;;;;5029079;28;20189;-57
2021/07/02 09:30:40;;;;;;;29.52;18.00;;;;;;;;;;5027374;28;20313;-58
2021/07/02 09:33:08;;;;;;;24.90;17.52;;;;;;;;;;5009955;28;20184;-59
2021/07/02 09:35:47;;;;;;;28.55;17.85;;;;;;;;;;5020510;28;20209;-58
2021/07/02 09:38:15;;;;;;;29.58;18.55;;;;;;;;;;5025609;28;20225;-56
2021/07/02 09:40:40;;;;;;;29.92;17.90;;;;;;;;;;5021968;28;20599;-55
2021/07/02 09:43:17;;;;;;;30.95;16.85;;;;;;;;;;5024731;28;20198;-58
2021/07/02 09:45:44;;;;;;;27.67;16.65;;;;;;;;;;5005307;28;20202;-55
2021/07/02 09:48:11;;;;;;;27.58;16.17;;;;;;;;;;5026523;28;20865;-53
2021/07/02 09:50:42;;;;;;;23.05;16.27;;;;;;;;;;5024118;28;20191;-57
2021/07/02 09:53:10;;;;;;;24.55;16.23;;;;;;;;;;5022508;28;20202;-57
2021/07/02 09:55:45;;;;;;;21.77;15.48;;;;;;;;;;5021548;28;20197;-55
2021/07/02 09:58:16;;;;;;;17.77;13.88;;;;;;;;;;5024025;28;20697;-55
2021/07/02 10:00:46;;;;;;;17.33;12.57;;;;;;;;;;5021113;28;20555;-54
2021/07/02 10:03:12;;;;;;;19.52;12.63;;;;;;;;;;5021521;28;20209;-55
2021/07/02 10:05:53;;;;;;;22.02;12.50;;;;;;;;;;5017403;28;20298;-57
2021/07/02 10:08:21;;;;;;;20.23;12.50;;;;;;;;;;5005277;28;20186;-57
2021/07/02 10:10:49;;;;;;;17.77;12.07;;;;;;;;;;5019268;28;20226;-57
2021/07/02 10:13:15;;;;;;;21.35;12.70;;;;;;;;;;5024719;28;20273;-57
2021/07/02 10:15:42;;;;;;;18.60;12.55;;;;;;;;;;5019166;28;20325;-54
2021/07/02 10:18:11;;;;;;;15.98;13.15;;;;;;;;;;5021213;28;20190;-57
2021/07/02 10:20:39;;;;;;;22.60;12.38;;;;;;;;;;5016352;28;20195;-57
2021/07/02 10:23:05;;;;;;;19.40;12.88;;;;;;;;;;5024418;28;20202;-57
2021/07/02 10:25:31;;;;;;;15.30;12.38;;;;;;;;;;4990879;28;20273;-56
2021/07/02 10:27:58;;;;;;;17.65;11.32;;;;;;;;;;5023248;28;20772;-56
2021/07/02 10:30:24;;;;;;;17.38;11.90;;;;;;;;;;5006559;28;20186;-57
2021/07/02 10:32:53;;;;;;;17.50;11.65;;;;;;;;;;5023566;28;20301;-57
2021/07/02 10:35:19;;;;;;;13.52;10.70;;;;;;;;;;5018842;28;20249;-56
2021/07/02 10:37:48;;;;;;;16.52;11.48;;;;;;;;;;5023986;28;20241;-58
2021/07/02 10:40:41;;;;;;;14.95;10.40;;;;;;;;;;5001715;28;20183;-58
2021/07/02 10:43:08;;;;;;;14.95;11.43;;;;;;;;;;5015821;28;20256;-57
2021/07/02 10:45:33;;;;;;;21.65;11.85;;;;;;;;;;5025816;28;20574;-58
2021/07/02 10:47:58;;;;;;;15.38;10.30;;;;;;;;;;5023939;28;20186;-58
2021/07/02 10:50:41;;;;;;;12.07;9.48;;;;;;;;;;5022646;28;20312;-57
2021/07/02 10:53:28;;;;;;;13.48;9.95;;;;;;;;;;5006330;28;20183;-57
2021/07/02 10:55:53;;;;;;;14.93;9.93;;;;;;;;;;5022700;28;20295;-58
2021/07/02 10:58:21;;;;;;;17.08;9.48;;;;;;;;;;5024168;28;20269;-56
2021/07/02 11:01:07;;;;;;;13.15;8.57;;;;;;;;;;5026712;28;20220;-58
2021/07/02 11:03:33;;;;;;;15.10;9.65;;;;;;;;;;5020755;28;20775;-60
2021/07/02 11:06:27;;;;;;;13.90;8.85;;;;;;;;;;5020959;28;20282;-57
2021/07/02 11:08:52;;;;;;;14.48;8.35;;;;;;;;;;5017588;28;20201;-59
2021/07/02 11:11:18;;;;;;;11.45;8.23;;;;;;;;;;5010645;28;20191;-56
2021/07/02 11:14:06;;;;;;;13.77;9.13;;;;;;;;;;5024726;28;20689;-56
2021/07/02 11:16:31;;;;;;;12.40;8.68;;;;;;;;;;5021326;28;20267;-58
2021/07/02 11:19:24;;;;;;;17.13;9.25;;;;;;;;;;5022408;28;20225;-59
2021/07/02 11:22:26;;;;;;;14.60;9.40;;;;;;;;;;5020018;28;20187;-64
2021/07/02 11:25:05;;;;;;;15.50;9.15;;;;;;;;;;5009037;28;20214;-60
2021/07/02 11:27:45;;;;;;;16.83;10.23;;;;;;;;;;5028891;28;20284;-61
2021/07/02 11:30:19;;;;;;;14.80;9.68;;;;;;;;;;5032331;28;20195;-60
2021/07/02 11:32:46;;;;;;;14.20;9.32;;;;;;;;;;5038658;28;20424;-59
2021/07/02 11:35:22;;;;;;;15.48;10.43;;;;;;;;;;5031912;28;20384;-60
2021/07/02 11:38:00;;;;;;;15.10;10.07;;;;;;;;;;5018431;28;20193;-57
2021/07/02 11:40:38;;;;;;;13.85;9.68;;;;;;;;;;5017585;28;20199;-56
2021/07/02 11:43:06;;;;;;;15.68;10.32;;;;;;;;;;5016334;28;20736;-58
2021/07/02 11:45:51;;;;;;;12.73;9.98;;;;;;;;;;5017824;28;20207;-60
2021/07/02 11:48:20;;;;;;;13.55;9.27;;;;;;;;;;5018412;28;20273;-54
2021/07/02 11:50:51;;;;;;;16.60;9.82;;;;;;;;;;5030638;28;20197;-55
2021/07/02 11:53:51;;;;;;;13.82;9.82;;;;;;;;;;5035495;28;20659;-57
2021/07/02 11:56:18;;;;;;;18.00;11.48;;;;;;;;;;5024945;28;20256;-57
2021/07/02 11:58:49;;;;;;;16.08;10.52;;;;;;;;;;5031282;28;20190;-58
2021/07/02 12:01:21;;;;;;;14.40;9.82;;;;;;;;;;5039505;28;20182;-57
2021/07/02 12:03:52;;;;;;;14.57;10.55;;;;;;;;;;5023798;28;20210;-56
2021/07/02 12:06:29;;;;;;;15.40;10.68;;;;;;;;;;5021985;28;20195;-56
2021/07/02 12:09:10;;;;;;;14.30;10.70;;;;;;;;;;5021837;28;20983;-56
2021/07/02 12:11:41;;;;;;;11.73;9.68;;;;;;;;;;5023231;28;20205;-55
2021/07/02 12:14:08;;;;;;;10.35;8.57;;;;;;;;;;5006586;28;20848;-56
2021/07/02 12:16:36;;;;;;;10.80;8.63;;;;;;;;;;5027175;28;20653;-57
2021/07/02 12:19:03;;;;;;;14.57;8.95;;;;;;;;;;5007087;28;20832;-55
2021/07/02 12:21:29;;;;;;;14.00;8.63;;;;;;;;;;5018934;28;20191;-54
2021/07/02 12:23:56;;;;;;;12.68;8.65;;;;;;;;;;5017502;28;20222;-56
2021/07/02 12:26:26;;;;;;;10.90;8.45;;;;;;;;;;5026503;28;20605;-55
2021/07/02 12:28:51;;;;;;;11.05;8.10;;;;;;;;;;5017588;28;20206;-54
2021/07/02 12:31:21;;;;;;;10.52;8.27;;;;;;;;;;5023504;28;20229;-54
2021/07/02 12:33:47;;;;;;;12.30;9.35;;;;;;;;;;5016139;28;20588;-55
2021/07/02 12:36:12;;;;;;;12.57;8.30;;;;;;;;;;5022316;28;20187;-53
2021/07/02 12:38:57;;;;;;;11.82;8.05;;;;;;;;;;5019924;28;20190;-54
2021/07/02 12:41:22;;;;;;;11.25;8.50;;;;;;;;;;5017518;28;20179;-53
2021/07/02 12:43:48;;;;;;;10.52;8.35;;;;;;;;;;5028278;28;21260;-55
2021/07/02 12:46:13;;;;;;;12.02;8.32;;;;;;;;;;5021888;28;20291;-55
2021/07/02 12:48:38;;;;;;;12.65;9.57;;;;;;;;;;5011464;28;20282;-55
2021/07/02 12:51:03;;;;;;;11.52;8.82;;;;;;;;;;5024737;28;20277;-55
2021/07/02 12:56:13;;;;;;;15.02;8.20;;;;;;;;;;5027369;28;20337;-55
2021/07/02 12:58:38;;;;;;;13.32;8.68;;;;;;;;;;5027793;28;20867;-55
2021/07/02 13:01:08;;;;;;;12.65;8.13;;;;;;;;;;5023733;28;20190;-55
2021/07/02 13:03:33;;;;;;;10.30;8.90;;;;;;;;;;5028077;28;20214;-56
2021/07/02 13:06:11;;;;;;;12.10;8.32;;;;;;;;;;5025723;28;20190;-54
2021/07/02 13:08:38;;;;;;;11.85;8.82;;;;;;;;;;5012748;28;20183;-55
2021/07/02 13:11:20;;;;;;;14.40;9.73;;;;;;;;;;5026372;28;20217;-55
2021/07/02 13:13:45;;;;;;;13.18;8.82;;;;;;;;;;5010242;28;20206;-56
2021/07/02 13:16:11;;;;;;;12.10;8.75;;;;;;;;;;5025450;28;20190;-55
2021/07/02 13:18:41;;;;;;;13.40;9.13;;;;;;;;;;5004157;28;20180;-55
2021/07/02 13:21:26;;;;;;;13.27;8.73;;;;;;;;;;5027047;28;20190;-56
2021/07/02 13:24:00;;;;;;;13.38;9.10;;;;;;;;;;5022245;28;20203;-56
2021/07/02 13:26:26;;;;;;;12.70;9.48;;;;;;;;;;5019587;28;20222;-56
2021/07/02 13:29:06;;;;;;;14.90;9.82;;;;;;;;;;5019977;28;20199;-55
2021/07/02 13:31:34;;;;;;;18.63;9.82;;;;;;;;;;5015833;28;20186;-56
2021/07/02 13:34:08;;;;;;;15.10;11.00;;;;;;;;;;5006978;28;20574;-54
2021/07/02 13:36:42;;;;;;;15.25;11.18;;;;;;;;;;5026291;28;20895;-55
2021/07/02 13:39:15;;;;;;;13.20;10.70;;;;;;;;;;5026271;28;20198;-55
2021/07/02 13:41:43;;;;;;;15.65;11.48;;;;;;;;;;5025969;28;20187;-55
2021/07/02 13:44:13;;;;;;;14.40;10.45;;;;;;;;;;5030023;28;20877;-54
2021/07/02 13:46:38;;;;;;;14.00;10.90;;;;;;;;;;5027493;28;20183;-56
2021/07/02 13:49:05;;;;;;;15.30;12.07;;;;;;;;;;5026579;28;20217;-55
2021/07/02 13:51:31;;;;;;;13.52;11.38;;;;;;;;;;5021001;28;20191;-55
2021/07/02 13:54:03;;;;;;;14.40;11.32;;;;;;;;;;5018792;28;20209;-55
2021/07/02 13:56:28;;;;;;;17.40;11.75;;;;;;;;;;5020924;28;20235;-55
2021/07/02 13:58:53;;;;;;;17.27;11.38;;;;;;;;;;5008591;28;20179;-54
2021/07/02 14:01:19;;;;;;;18.05;11.60;;;;;;;;;;5028204;28;20185;-56
2021/07/02 14:03:44;;;;;;;16.13;12.13;;;;;;;;;;5021431;28;20209;-56
2021/07/02 14:06:13;;;;;;;16.80;11.75;;;;;;;;;;5021484;28;20198;-56
2021/07/02 14:08:38;;;;;;;17.13;11.10;;;;;;;;;;5024197;28;20853;-57
2021/07/02 14:11:04;;;;;;;14.13;11.15;;;;;;;;;;5016181;28;20199;-56
2021/07/02 14:13:29;;;;;;;16.70;11.25;;;;;;;;;;5005754;28;20191;-55
2021/07/02 14:15:54;;;;;;;13.48;11.00;;;;;;;;;;5073325;22;20249;-58
2021/07/02 14:18:19;;;;;;;15.55;11.02;;;;;;;;;;5047641;28;20217;-59
2021/07/02 14:20:45;;;;;;;15.87;12.10;;;;;;;;;;5065788;28;20406;-56
2021/07/02 14:23:10;;;;;;;12.75;10.27;;;;;;;;;;5047720;28;20468;-58
2021/07/02 14:25:35;;;;;;;16.63;10.80;;;;;;;;;;5070344;28;20242;-56
2021/07/02 14:28:01;;;;;;;13.40;8.93;;;;;;;;;;5061541;28;20195;-57
2021/07/02 14:30:26;;;;;;;11.63;9.40;;;;;;;;;;5081456;28;20207;-58